Rockfall
UTM 11U Easting = 46 9626, Northing = 56 97773     Elevation = 2100 m
Note to Users: This site contains raw data and is presented "as is" and in real time. Although reasonable care is exercised in providing this information, inaccuracies or omissions may occur due to the properties of weather and data collection systems. The Avalanche Control Section, responsible for its collection, disclaims all responsibility for the accuracy of the information.
Date Max Temp (deg C) Min Temp (deg C) Rel Hum (%) HS (cm) Wind Dir (1 Hr Avg) Wind Spd (kph) (1 Hr Avg) Max Wind Speed (kph)
2021-01-17 05:00 -8 -8 90 206 SW 3 13
2021-01-17 06:00 -8 -8 90 207 NW 2 13
2021-01-17 07:00 -8 -8 89 206 NW 3 13
2021-01-17 08:00 -8 -8 89 207 W 4 15
2021-01-17 09:00 -7 -8 88 206 NW 9 25
2021-01-17 10:00 -7 -7 88 207 W 8 21
2021-01-17 11:00 -6 -7 85 207 W 10 30
2021-01-17 12:00 -6 -7 83 207 NW 10 36
2021-01-17 13:00 -5 -6 82 207 W 12 32
2021-01-17 14:00 -6 -6 83 207 W 11 28
2021-01-17 15:00 -6 -7 84 207 W 12 32
2021-01-17 16:00 -6 -7 84 206 W 11 29
2021-01-17 17:00 -6 -7 82 206 W 12 36
2021-01-17 18:00 -7 -7 80 206 W 11 28
2021-01-17 19:00 -7 -7 81 206 W 13 30
2021-01-17 20:00 -7 -7 83 206 NW 10 29
2021-01-17 21:00 -7 -7 81 206 NW 11 29
2021-01-17 22:00 -7 -7 81 206 NW 11 24
2021-01-17 23:00 -7 -7 80 205 NW 11 27
2021-01-18 00:00 -7 -7 78 205 NW 10 23
2021-01-18 01:00 -7 -8 78 205 NW 10 22
2021-01-18 02:00 -7 -8 79 205 NW 8 22
2021-01-18 03:00 -7 -8 79 205 W 8 20
2021-01-18 04:00 -7 -8 78 204 W 6 17